Peoria, AZ

5:31 AM MST on September 30, 2014 (GMT -0700)
Peoria AZ | Change Station
CLOSE
Current Station
Personal Weather Station
Location: Peoria, AZ
Elevation: 1145 ft
Nearby Weather Stations

Elev 1145 ft 33.58 °N, 112.23 °W | Updated 12 seconds ago

Clear
Clear
65.5 °F
Feels Like 65.5 °F
N
0.0
Wind Variable Wind from NE
Gusts 0.0 mph

Today
High -- | Low -- °F
--% Chance of Precip.
Yesterday
High -- | Low -- °F
Precip. -- in
6:22 AM 6:14 PM
Waxing Crescent, 36% visible
Pressure 29.81 in
Visibility 10.0 miles
Clouds Clear
Dew Point 52 °F
Humidity 61%
Rainfall 0.00 in
Snow Depth 0 in , 0 in , 1 in
UV 0 out of 12
Pollen 6.10 out of 12
PM2.5 Moderate
Flu Activity Not available.
METAR KLUF 301158Z AUTO 08004KT 10SM CLR 17/10 A2984 RMK AO2 SLP095 T01720097 10205 20172 55002 $

More Conditions Fewer Conditions

Pressure 29.81 in
Visibility 10.0 miles
Clouds Clear
Dew Point 52 °F
Humidity 61%
Rainfall 0.00 in
Snow Depth 0 in , 0 in , 1 in
UV 0 out of 12
Pollen 6.10 out of 12
PM2.5 Moderate
Flu Activity Not available.
METAR KLUF 301158Z AUTO 08004KT 10SM CLR 17/10 A2984 RMK AO2 SLP095 T01720097 10205 20172 55002 $

More Conditions Fewer Conditions

10-Day Weather Forecast

Almanac

Astronomy

Sep. 30, 2014 Rise Set
Actual Time 6:22 AM MST 6:14 PM MST
Civil Twilight 5:57 AM MST 6:39 PM MST
Nautical Twilight 5:29 AM MST 7:08 PM MST
Astronomical Twilight 5:00 AM MST 7:37 PM MST
Moon 12:21 PM MST 11:01 PM MST
Length of Visible Light 12h 41m
Length of Day
11h 51m
Tomorrow will be 2m 4s shorter.
Waxing Crescent, 36% of the Moon is Illuminated
Today
Waxing Crescent
Oct 1
First Quarter
Oct 8
Full
Oct 15
Last Quarter
Oct 23
New

Today's Extremes

State Highs State Lows

Community

WunderPhotos

Upload Photos

1,757,623 photos uploaded!

Nearby

Air Quality

  Air Quality AQ Index Pollutant
Yesterday Moderate
OZONE
Yesterday Good
PM10
Current Moderate
PM2.5
Tuesday Moderate
OZONE
Tuesday Good
PM10
Tuesday Good
CO
Wednesday Moderate
OZONE
Wednesday Good
PM10
Wednesday Good
CO

Snow Depth

Station Depth Elevation
Happy Jack 0 in 7630 ft
Heber 0 in 7640 ft
Mormon Mountain 1 in 7500 ft
Promontory 1 in 7930 ft
Wildcat 0 in 7850 ft

Earthquake Activity

City Distance Mag. Time & Date
No recent earthquake activity has been reported nearby.
Minimum magnitude displayed is 2.5.

Coastal Water Temperatures

Place Temperature
No Stations Reporting

Nearby Weather Stations